Terminal Aerodrome Forecast
Issued by NWS Quad Cities IA IL

Home | Current Version | Previous Version | Text Only | Print | Product List | Glossary On
Versions: 1 2 3 4 5 6 7 8 9 10 11 12 13 14 15 16 17 18 19 20 21
000
FTUS43 KDVN 202300
TAFDBQ
TAF
KDBQ 202327Z 2100/2124 22008KT P6SM VCSH BKN120
     FM210100 20004KT P6SM BKN150
     FM210600 18005KT 6SM -SHRA BR VCTS BKN050CB
     FM211500 20010KT P6SM BKN120=

USA.gov is the U.S. government's official web portal to all federal, state and local government web resources and services.